Time;durP1;ratioP1;P1;durP2;ratioP2;P2;SDS_P1;SDS_P2;PMS_P1;PMS_P2;Temp;Humidity;BMP_temperature;BMP_pressure;BME280_temperature;BME280_humidity;BME280_pressure;Samples;Min_cycle;Max_cycle;Signal;HPM_P1;HPM_P2
2022/09/06 00:02:17;;;;;;;;;;;;;;;-142.75;100.00;76361.63;5072163;28;19970;-68
2022/09/06 00:04:42;;;;;;;;;;;;;;;-142.75;100.00;76363.59;5072180;28;19913;-69
2022/09/06 00:07:07;;;;;;;;;;;;;;;-142.75;100.00;76355.72;5071911;28;20393;-67
2022/09/06 00:09:33;;;;;;;;;;;;;;;-142.75;100.00;76359.66;5072256;28;19916;-69
2022/09/06 00:11:58;;;;;;;;;;;;;;;-142.75;100.00;76365.56;5072053;28;19912;-68
2022/09/06 00:14:23;;;;;;;;;;;;;;;-142.75;100.00;76359.66;5072121;28;20373;-68
2022/09/06 00:16:48;;;;;;;;;;;;;;;-142.75;100.00;76371.47;5071745;28;19913;-68
2022/09/06 00:19:14;;;;;;;;;;;;;;;-142.75;100.00;76373.44;5072037;28;19913;-69
2022/09/06 00:21:40;;;;;;;;;;;;;;;-142.75;100.00;76381.31;5072086;28;20007;-69
2022/09/06 00:24:05;;;;;;;;;;;;;;;-142.75;100.00;76389.19;5070641;28;20401;-70
2022/09/06 00:26:30;;;;;;;;;;;;;;;-142.75;100.00;76387.22;5071769;28;19917;-69
2022/09/06 00:28:56;;;;;;;;;;;;;;;-142.75;100.00;76389.19;5071927;28;20293;-69
2022/09/06 00:31:22;;;;;;;;;;;;;;;-142.75;100.00;76391.16;5071912;28;19912;-69
2022/09/06 00:33:48;;;;;;;;;;;;;;;-142.75;100.00;76401.00;5069969;28;20389;-69
2022/09/06 00:36:14;;;;;;;;;;;;;;;-142.75;100.00;76416.75;5071930;28;19920;-69
2022/09/06 00:38:39;;;;;;;;;;;;;;;-142.75;100.00;76428.56;5071668;28;20336;-69
2022/09/06 00:41:06;;;;;;;;;;;;;;;-142.75;100.00;76440.38;5071930;28;19956;-69
2022/09/06 00:43:31;;;;;;;;;;;;;;;-142.75;100.00;76432.50;5071816;28;19913;-69
2022/09/06 00:45:57;;;;;;;;;;;;;;;-142.75;100.00;76432.50;5071659;28;19912;-70
2022/09/06 00:48:23;;;;;;;;;;;;;;;-142.75;100.00;76428.56;5071546;28;20601;-69
2022/09/06 00:50:49;;;;;;;;;;;;;;;-142.75;100.00;76412.81;5070493;28;19917;-69
2022/09/06 00:53:14;;;;;;;;;;;;;;;-142.75;100.00;76408.88;5071787;28;19954;-69
2022/09/06 00:55:41;;;;;;;;;;;;;;;-142.75;100.00;76399.03;5070449;28;19913;-70
2022/09/06 00:58:07;;;;;;;;;;;;;;;-142.75;100.00;76395.09;5071443;28;19919;-69
2022/09/06 01:00:32;;;;;;;;;;;;;;;-142.75;100.00;76397.06;5071605;28;19913;-69
2022/09/06 01:02:57;;;;;;;;;;;;;;;-142.75;100.00;76410.84;5071571;28;19913;-69
2022/09/06 01:05:26;;;;;;;;;;;;;;;-142.75;100.00;76408.88;5071542;28;20317;-69
2022/09/06 01:08:07;;;;;;;;;;;;;;;-142.75;100.00;76410.84;5073358;28;20011;-69
2022/09/06 01:10:41;;;;;;;;;;;;;;;-142.75;100.00;76393.13;5075342;28;19959;-69
2022/09/06 01:13:30;;;;;;;;;;;;;;;-142.75;100.00;76393.13;5073941;28;19916;-69
2022/09/06 01:15:58;;;;;;;;;;;;;;;-142.75;100.00;76391.16;5064397;28;19919;-68
2022/09/06 01:18:44;;;;;;;;;;;;;;;-142.75;100.00;76359.66;5074906;28;19913;-68
2022/09/06 01:21:15;;;;;;;;;;;;;;;-142.75;100.00;76332.13;5075210;28;19913;-70
2022/09/06 01:23:50;;;;;;;;;;;;;;;-142.75;100.00;76314.41;5073638;28;19974;-69
2022/09/06 01:26:34;;;;;;;;;;;;;;;-142.75;100.00;76302.59;5073594;28;19926;-68
2022/09/06 01:28:59;;;;;;;;;;;;;;;-142.75;100.00;76298.66;5075027;28;19916;-69
2022/09/06 01:31:25;;;;;;;;;;;;;;;-142.75;100.00;76277.00;5074925;28;19912;-69
2022/09/06 01:33:59;;;;;;;;;;;;;;;-142.75;100.00;76243.53;5074756;28;19999;-69
2022/09/06 01:36:26;;;;;;;;;;;;;;;-142.75;100.00;76210.06;5074850;28;19935;-68
2022/09/06 01:38:51;;;;;;;;;;;;;;;-142.75;100.00;76170.72;5073338;28;19930;-69
2022/09/06 01:41:16;;;;;;;;;;;;;;;-142.75;100.00;76147.09;5074794;28;19916;-69
2022/09/06 01:43:44;;;;;;;;;;;;;;;-142.75;100.00;76137.25;5073652;28;20274;-69
2022/09/06 01:46:09;;;;;;;;;;;;;;;-142.75;100.00;76133.31;5074579;28;19952;-69
2022/09/06 01:48:40;;;;;;;;;;;;;;;-142.75;100.00;76137.25;5074339;28;20407;-69
2022/09/06 01:51:08;;;;;;;;;;;;;;;-142.75;100.00;76137.25;5074588;28;19912;-69
2022/09/06 01:53:59;;;;;;;;;;;;;;;-142.75;100.00;76139.22;5074482;28;19913;-69
2022/09/06 01:56:37;;;;;;;;;;;;;;;-142.75;100.00;76145.13;5073233;28;19919;-69
2022/09/06 01:59:18;;;;;;;;;;;;;;;-142.75;100.00;76154.97;5074682;28;20424;-70
2022/09/06 02:01:56;;;;;;;;;;;;;;;-142.75;100.00;76172.69;5074465;28;19955;-69
2022/09/06 02:04:38;;;;;;;;;;;;;;;-142.75;100.00;76196.31;5074381;28;19920;-69
2022/09/06 02:07:09;;;;;;;;;;;;;;;-142.75;100.00;76225.81;5074023;28;19912;-69
2022/09/06 02:09:39;;;;;;;;;;;;;;;-142.75;100.00;76251.41;5074284;28;19916;-68
2022/09/06 02:12:05;;;;;;;;;;;;;;;-142.75;100.00;76280.94;5074220;28;19919;-68
2022/09/06 02:14:34;;;;;;;;;;;;;;;-142.75;100.00;76288.81;5074172;28;19916;-68
2022/09/06 02:17:01;;;;;;;;;;;;;;;-142.75;100.00;76310.47;5073771;28;19912;-69
2022/09/06 02:19:32;;;;;;;;;;;;;;;-142.75;100.00;76312.44;5073845;28;20297;-69
2022/09/06 02:21:58;;;;;;;;;;;;;;;-142.75;100.00;76328.19;5073949;28;19913;-68
2022/09/06 02:24:29;;;;;;;;;;;;;;;-142.75;100.00;76345.91;5073934;28;20294;-70
2022/09/06 02:26:54;;;;;;;;;;;;;;;-142.75;100.00;76361.63;5073564;28;20016;-69
2022/09/06 02:29:20;;;;;;;;;;;;;;;-142.75;100.00;76381.31;5073879;28;20381;-69
2022/09/06 02:31:51;;;;;;;;;;;;;;;-142.75;100.00;76389.19;5072499;28;19935;-69
2022/09/06 02:34:18;;;;;;;;;;;;;;;-142.75;100.00;76397.06;5073577;28;20443;-69
2022/09/06 02:36:44;;;;;;;;;;;;;;;-142.75;100.00;76408.88;5073412;28;19916;-69
2022/09/06 02:39:09;;;;;;;;;;;;;;;-142.75;100.00;76414.78;5073643;28;19912;-69
2022/09/06 02:41:34;;;;;;;;;;;;;;;-142.75;100.00;76416.75;5073562;28;19912;-69
2022/09/06 02:44:00;;;;;;;;;;;;;;;-142.75;100.00;76430.53;5073487;28;19920;-68
2022/09/06 02:46:25;;;;;;;;;;;;;;;-142.75;100.00;76418.72;5072061;28;19912;-68
2022/09/06 02:48:50;;;;;;;;;;;;;;;-142.75;100.00;76424.63;5073121;28;19917;-69
2022/09/06 02:51:16;;;;;;;;;;;;;;;-142.75;100.00;76436.44;5072116;28;19913;-70
2022/09/06 02:53:41;;;;;;;;;;;;;;;-142.75;100.00;76440.38;5073293;28;19977;-68
2022/09/06 02:56:06;;;;;;;;;;;;;;;-142.75;100.00;76434.47;5073305;28;19919;-69
2022/09/06 02:58:32;;;;;;;;;;;;;;;-142.75;100.00;76434.47;5072994;28;20378;-68
2022/09/06 03:00:57;;;;;;;;;;;;;;;-142.75;100.00;76436.44;5073291;28;20396;-68
2022/09/06 03:03:22;;;;;;;;;;;;;;;-142.75;100.00;76444.31;5073000;28;20386;-68
2022/09/06 03:05:48;;;;;;;;;;;;;;;-142.75;100.00;76436.44;5073017;28;19912;-69
2022/09/06 03:08:14;;;;;;;;;;;;;;;-142.75;100.00;76436.44;5072796;28;19970;-69
2022/09/06 03:10:39;;;;;;;;;;;;;;;-142.75;100.00;76444.31;5071754;28;19959;-70
2022/09/06 03:13:04;;;;;;;;;;;;;;;-142.75;100.00;76442.34;5072920;28;19912;-69
2022/09/06 03:15:29;;;;;;;;;;;;;;;-142.75;100.00;76440.38;5072926;28;20417;-69
2022/09/06 03:17:58;;;;;;;;;;;;;;;-142.75;100.00;76438.41;5072529;28;19912;-69
2022/09/06 03:20:24;;;;;;;;;;;;;;;-142.75;100.00;76452.19;5072876;28;20299;-68
2022/09/06 03:22:49;;;;;;;;;;;;;;;-142.75;100.00;76440.38;5072571;28;19916;-68
2022/09/06 03:25:14;;;;;;;;;;;;;;;-142.75;100.00;76436.44;5072691;28;20397;-70
2022/09/06 03:27:39;;;;;;;;;;;;;;;-142.75;100.00;76428.56;5072428;28;20294;-69
2022/09/06 03:30:05;;;;;;;;;;;;;;;-142.75;100.00;76436.44;5072095;28;19912;-69
2022/09/06 03:32:30;;;;;;;;;;;;;;;-142.75;100.00;76442.34;5072419;28;19913;-68
2022/09/06 03:34:55;;;;;;;;;;;;;;;-142.75;100.00;76440.38;5072577;28;19912;-69
2022/09/06 03:37:20;;;;;;;;;;;;;;;-142.75;100.00;76430.53;5072204;28;20338;-68
2022/09/06 03:39:46;;;;;;;;;;;;;;;-142.75;100.00;76420.69;5072562;28;19912;-68
2022/09/06 03:42:11;;;;;;;;;;;;;;;-142.75;100.00;76422.66;5071239;28;20382;-69
2022/09/06 03:44:36;;;;;;;;;;;;;;;-142.75;100.00;76418.72;5072454;28;19913;-68
2022/09/06 03:47:02;;;;;;;;;;;;;;;-142.75;100.00;76414.78;5072039;28;19916;-68
2022/09/06 03:49:27;;;;;;;;;;;;;;;-142.75;100.00;76401.00;5072648;28;19921;-69
2022/09/06 03:51:52;;;;;;;;;;;;;;;-142.75;100.00;76393.13;5071036;28;20375;-69
2022/09/06 03:54:17;;;;;;;;;;;;;;;-142.75;100.00;76401.00;5071032;28;19912;-69
2022/09/06 03:56:43;;;;;;;;;;;;;;;-142.75;100.00;76393.13;5072040;28;19935;-69
2022/09/06 03:59:08;;;;;;;;;;;;;;;-142.75;100.00;76416.75;5071057;28;19966;-68
2022/09/06 04:01:33;;;;;;;;;;;;;;;-142.75;100.00;76446.28;5072186;28;19919;-69
2022/09/06 04:04:00;;;;;;;;;;;;;;;-142.75;100.00;76444.31;5072160;28;19963;-69
2022/09/06 04:06:25;;;;;;;;;;;;;;;-142.75;100.00;76452.19;5072044;28;19935;-69
2022/09/06 04:08:50;;;;;;;;;;;;;;;-142.75;100.00;76454.16;5071968;28;19999;-69
2022/09/06 04:11:15;;;;;;;;;;;;;;;-142.75;100.00;76473.84;5070877;28;19918;-69
2022/09/06 04:13:41;;;;;;;;;;;;;;;-142.75;100.00;76464.00;5072169;28;19965;-68
2022/09/06 04:16:06;;;;;;;;;;;;;;;-142.75;100.00;76477.78;5072093;28;19999;-69
2022/09/06 04:18:31;;;;;;;;;;;;;;;-142.75;100.00;76469.91;5071796;28;19916;-68
2022/09/06 04:20:57;;;;;;;;;;;;;;;-142.75;100.00;76477.78;5071999;28;19913;-69
2022/09/06 04:23:23;;;;;;;;;;;;;;;-142.75;100.00;76495.50;5084827;22;19932;-70
2022/09/06 04:25:52;;;;;;;;;;;;;;;-142.75;100.00;76493.53;5050144;28;20154;-70
2022/09/06 04:28:17;;;;;;;;;;;;;;;-142.75;100.00;76499.44;5050318;28;19920;-70
2022/09/06 04:30:43;;;;;;;;;;;;;;;-142.75;100.00;76499.44;5052009;28;19913;-70
2022/09/06 04:33:08;;;;;;;;;;;;;;;-142.75;100.00;76493.53;5051785;28;19917;-70
2022/09/06 04:35:34;;;;;;;;;;;;;;;-142.75;100.00;76483.69;5051911;28;19920;-70
2022/09/06 04:37:59;;;;;;;;;;;;;;;-142.75;100.00;76483.69;5050360;28;20279;-70
2022/09/06 04:40:24;;;;;;;;;;;;;;;-142.75;100.00;76491.56;5050628;28;19967;-70
2022/09/06 04:42:50;;;;;;;;;;;;;;;-142.75;100.00;76507.31;5054031;28;20283;-70
2022/09/06 04:45:15;;;;;;;;;;;;;;;-142.75;100.00;76501.41;5055780;28;19928;-68
2022/09/06 04:47:40;;;;;;;;;;;;;;;-142.75;100.00;76481.72;5055449;28;19912;-68
2022/09/06 04:50:05;;;;;;;;;;;;;;;-142.75;100.00;76487.63;5055736;28;19917;-68
2022/09/06 04:52:31;;;;;;;;;;;;;;;-142.75;100.00;76475.81;5055651;28;19912;-68
2022/09/06 04:54:56;;;;;;;;;;;;;;;-142.75;100.00;76464.00;5055723;28;19912;-68
2022/09/06 04:57:21;;;;;;;;;;;;;;;-142.75;100.00;76456.13;5055289;28;19913;-68
2022/09/06 04:59:46;;;;;;;;;;;;;;;-142.75;100.00;76454.16;5055200;28;20382;-68
2022/09/06 05:02:11;;;;;;;;;;;;;;;-142.75;100.00;76448.25;5054962;28;20007;-68
2022/09/06 05:04:36;;;;;;;;;;;;;;;-142.75;100.00;76446.28;5055325;28;20003;-68
2022/09/06 05:07:03;;;;;;;;;;;;;;;-142.75;100.00;76434.47;5055072;28;20290;-68
2022/09/06 05:09:29;;;;;;;;;;;;;;;-142.75;100.00;76428.56;5055484;28;20267;-68
2022/09/06 05:11:54;;;;;;;;;;;;;;;-142.75;100.00;76422.66;5055396;28;20000;-68
2022/09/06 05:14:20;;;;;;;;;;;;;;;-142.75;100.00;76422.66;5055275;28;20353;-68
2022/09/06 05:16:46;;;;;;;;;;;;;;;-142.75;100.00;76422.66;5053688;28;19917;-68
2022/09/06 05:19:11;;;;;;;;;;;;;;;-142.75;100.00;76416.75;5055240;28;19967;-68
2022/09/06 05:21:36;;;;;;;;;;;;;;;-142.75;100.00;76410.84;5055176;28;20341;-68
2022/09/06 05:24:02;;;;;;;;;;;;;;;-142.75;100.00;76408.88;5054962;28;19939;-68
2022/09/06 05:26:27;;;;;;;;;;;;;;;-142.75;100.00;76410.84;5048571;28;19932;-68
2022/09/06 05:28:52;;;;;;;;;;;;;;;-142.75;100.00;76412.81;5054786;28;19996;-68
2022/09/06 05:31:28;;;;;;;;;;;;;;;-142.75;100.00;76408.88;5055051;28;19917;-68
2022/09/06 05:33:53;;;;;;;;;;;;;;;-142.75;100.00;76404.94;5054908;28;20348;-68
2022/09/06 05:36:19;;;;;;;;;;;;;;;-142.75;100.00;76404.94;5053656;28;20012;-68
2022/09/06 05:38:44;;;;;;;;;;;;;;;-142.75;100.00;76414.78;5054683;28;19952;-68
2022/09/06 05:41:10;;;;;;;;;;;;;;;-142.75;100.00;76416.75;5054708;28;19913;-68
2022/09/06 05:43:35;;;;;;;;;;;;;;;-142.75;100.00;76432.50;5054948;28;19917;-68
2022/09/06 05:46:00;;;;;;;;;;;;;;;-142.75;100.00;76432.50;5053401;28;20317;-68
2022/09/06 05:48:25;;;;;;;;;;;;;;;-142.75;100.00;76418.72;5054463;28;20062;-68
2022/09/06 05:51:00;;;;;;;;;;;;;;;-142.75;100.00;76395.09;5054825;28;19923;-67
2022/09/06 05:53:25;;;;;;;;;;;;;;;-142.75;100.00;76377.38;5054158;28;19934;-68
2022/09/06 05:55:50;;;;;;;;;;;;;;;-142.75;100.00;76361.63;5054658;28;20015;-67
2022/09/06 05:58:16;;;;;;;;;;;;;;;-142.75;100.00;76345.91;5052998;28;19919;-70
2022/09/06 06:00:41;;;;;;;;;;;;;;;-142.75;100.00;76330.16;5054595;28;19920;-70
2022/09/06 06:03:06;;;;;;;;;;;;;;;-142.75;100.00;76306.53;5054385;28;19913;-70
2022/09/06 06:05:31;;;;;;;;;;;;;;;-142.75;100.00;76298.66;5054044;28;19947;-69
2022/09/06 06:07:58;;;;;;;;;;;;;;;-142.75;100.00;76298.66;5054060;28;20417;-69
2022/09/06 06:10:23;;;;;;;;;;;;;;;-142.75;100.00;76275.03;5054322;28;19919;-70
2022/09/06 06:12:48;;;;;;;;;;;;;;;-142.75;100.00;76257.31;5054255;28;20003;-70
2022/09/06 06:15:14;;;;;;;;;;;;;;;-142.75;100.00;76253.38;5054153;28;19935;-70
2022/09/06 06:17:39;;;;;;;;;;;;;;;-142.75;100.00;76243.53;5053830;28;19913;-69
2022/09/06 06:20:04;;;;;;;;;;;;;;;-142.75;100.00;76241.56;5054071;28;19920;-70
2022/09/06 06:22:29;;;;;;;;;;;;;;;-142.75;100.00;76233.69;5053978;28;20497;-70
2022/09/06 06:24:54;;;;;;;;;;;;;;;-142.75;100.00;76223.84;5054033;28;20398;-70
2022/09/06 06:27:20;;;;;;;;;;;;;;;-142.75;100.00;76202.19;5053913;28;19913;-69
2022/09/06 06:29:45;;;;;;;;;;;;;;;-142.75;100.00;76174.66;5053884;28;19917;-70
2022/09/06 06:32:10;;;;;;;;;;;;;;;-142.75;100.00;76170.72;5052665;28;20267;-67
2022/09/06 06:34:35;;;;;;;;;;;;;;;-142.75;100.00;76147.09;5054506;28;19916;-67
2022/09/06 06:37:01;;;;;;;;;;;;;;;-142.75;100.00;76141.19;5054467;28;20062;-67
2022/09/06 06:39:26;;;;;;;;;;;;;;;-142.75;100.00;76141.19;5053737;28;19917;-67
2022/09/06 06:41:51;;;;;;;;;;;;;;;-142.75;100.00;76145.13;5053804;28;19920;-68
2022/09/06 06:44:17;;;;;;;;;;;;;;;-142.75;100.00;76151.03;5053573;28;19912;-67
2022/09/06 06:46:42;;;;;;;;;;;;;;;-142.75;100.00;76135.28;5053896;28;19963;-67
2022/09/06 06:49:08;;;;;;;;;;;;;;;-142.75;100.00;76135.28;5053775;28;19943;-67
2022/09/06 06:51:35;;;;;;;;;;;;;;;-142.75;100.00;76115.59;5054271;28;19919;-67
2022/09/06 06:54:01;;;;;;;;;;;;;;;-142.75;100.00;76103.78;5053164;28;19987;-67
2022/09/06 06:56:28;;;;;;;;;;;;;;;-142.75;100.00;76082.13;5053690;28;20015;-67
2022/09/06 06:58:55;;;;;;;;;;;;;;;-142.75;100.00;76064.44;5048290;28;19925;-68
2022/09/06 07:01:20;;;;;;;;;;;;;;;-142.75;100.00;76054.59;5046468;28;19917;-67
2022/09/06 07:03:46;;;;;;;;;;;;;;;-142.75;100.00;76054.59;5041714;28;20358;-67
2022/09/06 07:06:12;;;;;;;;;;;;;;;-142.75;100.00;76066.41;5040035;28;19968;-67
2022/09/06 07:08:37;;;;;;;;;;;;;;;-142.75;100.00;76042.78;5043746;28;19913;-67
2022/09/06 07:11:03;;;;;;;;;;;;;;;-142.75;100.00;76030.97;5038953;28;19913;-66
2022/09/06 07:13:30;;;;;;;;;;;;;;;-142.75;100.00;76027.03;5041328;28;19988;-67
2022/09/06 07:16:14;;;;;;;;;;;;;;;-142.75;100.00;76017.19;5037043;28;19921;-67
2022/09/06 07:18:44;;;;;;;;;;;;;;;-142.75;100.00;76017.19;5037430;28;19953;-67
2022/09/06 07:21:10;;;;;;;;;;;;;;;-142.75;100.00;76013.25;5037293;28;20382;-68
2022/09/06 07:23:35;;;;;;;;;;;;;;;-142.75;100.00;75999.47;5052388;28;19921;-67
2022/09/06 07:26:00;;;;;;;;;;;;;;;-142.75;100.00;75993.56;5052298;28;19917;-67
2022/09/06 07:28:25;;;;;;;;;;;;;;;-142.75;100.00;75975.84;5048909;28;20386;-67
2022/09/06 07:30:52;;;;;;;;;;;;;;;-142.75;100.00;75958.16;5043651;28;19925;-68
2022/09/06 07:33:17;;;;;;;;;;;;;;;-142.75;100.00;75962.09;5051245;28;19917;-67
2022/09/06 07:35:52;;;;;;;;;;;;;;;-142.75;100.00;75960.13;5049474;28;19978;-67
2022/09/06 07:38:17;;;;;;;;;;;;;;;-142.75;100.00;75952.25;5050916;28;19974;-68
2022/09/06 07:40:51;;;;;;;;;;;;;;;-142.75;100.00;75906.97;5051998;28;20348;-67
2022/09/06 07:43:16;;;;;;;;;;;;;;;-142.75;100.00;75895.16;5051912;28;20011;-67
2022/09/06 07:45:41;;;;;;;;;;;;;;;-142.75;100.00;75895.16;5050803;28;20012;-67
2022/09/06 07:48:06;;;;;;;;;;;;;;;-142.75;100.00;75920.75;5051383;28;20275;-67
2022/09/06 07:50:31;;;;;;;;;;;;;;;-142.75;100.00;75930.59;5051786;28;19912;-67
2022/09/06 07:53:03;;;;;;;;;;;;;;;-142.75;100.00;75936.50;5050555;28;19956;-67
2022/09/06 07:55:28;;;;;;;;;;;;;;;-142.75;100.00;75948.31;5050338;28;20393;-67
2022/09/06 07:57:53;;;;;;;;;;;;;;;-142.75;100.00;75928.63;5052138;28;19935;-67
2022/09/06 08:00:19;;;;;;;;;;;;;;;-142.75;100.00;75936.50;5052461;28;19913;-67
2022/09/06 08:02:44;;;;;;;;;;;;;;;-142.75;100.00;75952.25;5051863;28;19971;-65
2022/09/06 08:05:09;;;;;;;;;;;;;;;-142.75;100.00;75912.88;5051998;28;19978;-67
2022/09/06 08:07:34;;;;;;;;;;;;;;;-142.75;100.00;75873.50;5051830;28;19912;-67
2022/09/06 08:09:59;;;;;;;;;;;;;;;-142.75;100.00;75855.81;5052285;28;19913;-67
2022/09/06 08:12:26;;;;;;;;;;;;;;;-142.75;100.00;75861.69;5049994;28;20384;-67
2022/09/06 08:14:51;;;;;;;;;;;;;;;-142.75;100.00;75840.06;5052197;28;19921;-67
2022/09/06 08:17:17;;;;;;;;;;;;;;;-142.75;100.00;75885.31;5050433;28;19967;-67
2022/09/06 08:19:42;;;;;;;;;;;;;;;-142.75;100.00;75891.22;5052043;28;19912;-67
2022/09/06 08:22:07;;;;;;;;;;;;;;;-142.75;100.00;75873.50;5051640;28;19966;-67
2022/09/06 08:24:34;;;;;;;;;;;;;;;-142.75;100.00;75838.09;5051726;28;19996;-67
2022/09/06 08:26:59;;;;;;;;;;;;;;;-142.75;100.00;75865.63;5048898;28;19943;-67
2022/09/06 08:29:26;;;;;;;;;;;;;;;-142.75;100.00;75861.69;5049941;28;20402;-67
2022/09/06 08:31:51;;;;;;;;;;;;;;;-142.75;100.00;75855.81;5048249;28;19923;-67
2022/09/06 08:34:16;;;;;;;;;;;;;;;-142.75;100.00;75842.03;5050693;28;20003;-68
2022/09/06 08:36:42;;;;;;;;;;;;;;;-142.75;100.00;75849.91;5050310;28;20004;-67
2022/09/06 08:39:08;;;;;;;;;;;;;;;-142.75;100.00;75877.44;5050857;28;19924;-67
2022/09/06 08:41:45;;;;;;;;;;;;;;;-142.75;100.00;75875.47;5050695;28;19917;-65
2022/09/06 08:44:16;;;;;;;;;;;;;;;-142.75;100.00;75861.69;5050532;28;19924;-66
2022/09/06 08:46:47;;;;;;;;;;;;;;;-142.75;100.00;75822.34;5048447;28;19921;-68
2022/09/06 08:49:12;;;;;;;;;;;;;;;-142.75;100.00;75779.03;5050759;28;20553;-66
2022/09/06 08:51:37;;;;;;;;;;;;;;;-142.75;100.00;75718.03;5051463;28;19924;-66
2022/09/06 08:54:32;;;;;;;;;;;;;;;-142.75;100.00;75657.03;5052305;28;19913;-66
2022/09/06 08:57:03;;;;;;;;;;;;;;;-142.75;100.00;75588.16;4958932;28;20280;-66
2022/09/06 08:59:32;;;;;;;;;;;;;;;-142.75;100.00;75631.44;5052137;28;19913;-66
2022/09/06 09:02:10;;;;;;;;;;;;;;;-142.75;100.00;75603.88;5051619;28;19920;-66
2022/09/06 09:04:40;;;;;;;;;;;;;;;-142.75;100.00;75568.47;5051899;28;20003;-66
2022/09/06 09:07:24;;;;;;;;;;;;;;;-142.75;100.00;75592.09;5051190;28;19928;-66
2022/09/06 09:09:51;;;;;;;;;;;;;;;-142.75;100.00;75586.19;5065359;28;19913;-66
2022/09/06 09:12:17;;;;;;;;;;;;;;;-142.75;100.00;75536.97;5050108;28;20413;-66
2022/09/06 09:14:45;;;;;;;;;;;;;;;-142.75;100.00;75558.63;5050041;28;20386;-66
2022/09/06 09:17:23;;;;;;;;;;;;;;;-142.75;100.00;75552.72;5051503;28;19919;-66
2022/09/06 09:19:48;;;;;;;;;;;;;;;-142.75;100.00;75546.81;5034155;28;19913;-66
2022/09/06 09:22:16;;;;;;;;;;;;;;;-142.75;100.00;75487.78;5050766;28;19913;-66
2022/09/06 09:24:42;;;;;;;;;;;;;;;-142.75;100.00;75466.13;5051938;28;19924;-66
2022/09/06 09:27:09;;;;;;;;;;;;;;;-142.75;100.00;75442.50;5051496;28;19917;-67
2022/09/06 09:29:53;;;;;;;;;;;;;;;-142.75;100.00;75413.00;5054501;28;19913;-66
2022/09/06 09:32:37;;;;;;;;;;;;;;;-142.75;100.00;75363.78;5055101;28;19939;-67
2022/09/06 09:35:38;;;;;;;;;;;;;;;-142.75;100.00;75357.91;5054954;28;20321;-68
2022/09/06 09:38:08;;;;;;;;;;;;;;;-142.75;100.00;75306.72;5032522;28;20458;-67
2022/09/06 09:40:39;;;;;;;;;;;;;;;-142.75;100.00;75324.44;5050663;28;19919;-68
2022/09/06 09:43:09;;;;;;;;;;;;;;;-142.75;100.00;75292.97;5054777;28;20476;-67
2022/09/06 09:45:34;;;;;;;;;;;;;;;-142.75;100.00;75316.56;5054499;28;19923;-68
2022/09/06 09:48:14;;;;;;;;;;;;;;;-142.75;100.00;75371.66;5054617;28;19912;-67
2022/09/06 09:50:39;;;;;;;;;;;;;;;-142.75;100.00;75491.72;5054777;28;19913;-67
2022/09/06 09:53:12;;;;;;;;;;;;;;;-142.75;100.00;75507.47;5054649;28;20359;-67
2022/09/06 09:55:37;;;;;;;;;;;;;;;-142.75;100.00;75499.59;5054582;28;19913;-68
2022/09/06 09:58:03;;;;;;;;;;;;;;;-142.75;100.00;75468.09;5053980;28;19966;-67
2022/09/06 10:00:32;;;;;;;;;;;;;;;-142.75;100.00;75432.69;5054558;28;20458;-66
2022/09/06 10:02:58;;;;;;;;;;;;;;;-142.75;100.00;75379.53;5054365;28;19913;-66
2022/09/06 10:05:23;;;;;;;;;;;;;;;-142.75;100.00;75350.03;5054383;28;19963;-66
2022/09/06 10:07:50;;;;;;;;;;;;;;;-142.75;100.00;75306.72;5054106;28;19913;-66
2022/09/06 10:10:26;;;;;;;;;;;;;;;-142.75;100.00;75322.47;5054665;28;20317;-66
2022/09/06 10:13:10;;;;;;;;;;;;;;;-142.75;100.00;75300.81;5053716;28;20307;-66
2022/09/06 10:15:36;;;;;;;;;;;;;;;-142.75;100.00;75298.84;5051736;28;20615;-66
2022/09/06 10:18:01;;;;;;;;;;;;;;;-142.75;100.00;75365.75;5053597;28;19923;-66
2022/09/06 10:20:32;;;;;;;;;;;;;;;-142.75;100.00;75318.53;5053778;28;19912;-66
2022/09/06 10:22:57;;;;;;;;;;;;;;;-142.75;100.00;75365.75;5053692;28;19921;-66
2022/09/06 10:25:31;;;;;;;;;;;;;;;-142.75;100.00;75350.03;5070449;28;20409;-67
2022/09/06 10:28:05;;;;;;;;;;;;;;;-142.75;100.00;75387.41;5053399;28;20298;-66
2022/09/06 10:30:34;;;;;;;;;;;;;;;-142.75;100.00;75346.09;5051183;28;20007;-66
2022/09/06 10:33:17;;;;;;;;;;;;;;;-142.75;100.00;75320.50;5053249;28;19920;-66
2022/09/06 10:35:43;;;;;;;;;;;;;;;-142.75;100.00;75265.41;5052765;28;19917;-66
2022/09/06 10:38:17;;;;;;;;;;;;;;;-142.75;100.00;75224.09;5053055;28;19958;-66
2022/09/06 10:40:55;;;;;;;;;;;;;;;-142.75;100.00;75163.09;5053686;28;19919;-66
2022/09/06 10:43:20;;;;;;;;;;;;;;;-142.75;100.00;75104.03;5053280;28;20294;-67
2022/09/06 10:45:48;;;;;;;;;;;;;;;-142.75;100.00;75082.41;5050417;28;19947;-66
2022/09/06 10:48:30;;;;;;;;;;;;;;;-142.75;100.00;75088.31;5050876;28;19923;-66
2022/09/06 10:51:19;;;;;;;;;;;;;;;-142.75;100.00;75066.66;5053408;28;20367;-68
2022/09/06 10:53:44;;;;;;;;;;;;;;;-142.75;100.00;75109.94;5051390;28;19916;-66
2022/09/06 10:56:12;;;;;;;;;;;;;;;-142.75;100.00;75045.00;5053263;28;19920;-66
2022/09/06 10:58:50;;;;;;;;;;;;;;;-142.75;100.00;75098.16;5052288;28;19966;-66
2022/09/06 11:01:20;;;;;;;;;;;;;;;-142.75;100.00;75062.72;5052347;28;19924;-66
2022/09/06 11:03:45;;;;;;;;;;;;;;;-142.75;100.00;75107.97;5051825;28;20077;-66
2022/09/06 11:06:11;;;;;;;;;;;;;;;-142.75;100.00;75100.09;5053056;28;20449;-66
2022/09/06 11:08:48;;;;;;;;;;;;;;;-142.75;100.00;75188.66;5052704;28;19920;-66
2022/09/06 11:11:22;;;;;;;;;;;;;;;-142.75;100.00;75107.97;5052770;28;19920;-66
2022/09/06 11:13:47;;;;;;;;;;;;;;;-142.75;100.00;75068.63;5052586;28;19920;-66
2022/09/06 11:16:24;;;;;;;;;;;;;;;-142.75;100.00;75052.88;5052737;28;19919;-66
2022/09/06 11:18:55;;;;;;;;;;;;;;;-142.75;100.00;75054.84;5052787;28;19912;-66
2022/09/06 11:21:45;;;;;;;;;;;;;;;-142.75;100.00;75025.34;5052949;28;19919;-66
2022/09/06 11:24:13;;;;;;;;;;;;;;;-142.75;100.00;75009.59;5051313;28;19924;-66
2022/09/06 11:26:43;;;;;;;;;;;;;;;-142.75;100.00;74950.56;5052417;28;19917;-66
2022/09/06 11:29:15;;;;;;;;;;;;;;;-142.75;100.00;74976.16;5052842;28;19912;-66
2022/09/06 11:31:49;;;;;;;;;;;;;;;-142.75;100.00;74932.84;5052773;28;19913;-66
2022/09/06 11:34:31;;;;;;;;;;;;;;;-142.75;89.11;74895.47;5052224;28;20071;-66
2022/09/06 11:36:58;;;;;;;;;;;;;;;-142.75;88.85;74871.84;5052281;28;19952;-68
2022/09/06 11:39:31;;;;;;;;;;;;;;;-142.75;89.05;74850.22;5051576;28;19932;-68
2022/09/06 11:41:57;;;;;;;;;;;;;;;-142.75;82.30;74852.19;5052632;28;19912;-68
2022/09/06 11:44:45;;;;;;;;;;;;;;;-142.75;86.20;74830.53;5051505;28;19916;-69
2022/09/06 11:47:30;;;;;;;;;;;;;;;-142.75;83.56;74822.66;5052535;28;19917;-69
2022/09/06 11:49:55;;;;;;;;;;;;;;;-142.75;85.98;74846.28;5052430;28;19999;-68
2022/09/06 11:52:39;;;;;;;;;;;;;;;-142.75;84.75;74816.75;5048338;28;20058;-68
2022/09/06 11:55:08;;;;;;;;;;;;;;;-142.75;84.03;74795.13;5051518;28;19921;-68
2022/09/06 11:57:33;;;;;;;;;;;;;;;-142.75;82.60;74779.38;5052425;28;20074;-69
2022/09/06 12:00:00;;;;;;;;;;;;;;;-142.75;82.03;74814.78;5053136;28;21427;-68
2022/09/06 12:02:36;;;;;;;;;;;;;;;-142.75;85.47;74842.34;5052052;28;19916;-68
2022/09/06 12:05:06;;;;;;;;;;;;;;;-142.75;79.59;74783.31;5052262;28;20387;-68
2022/09/06 12:07:32;;;;;;;;;;;;;;;-142.75;79.47;74789.22;5068573;28;20392;-68
2022/09/06 12:10:00;;;;;;;;;;;;;;;-142.75;77.50;74789.22;5052740;28;19917;-68
2022/09/06 12:12:39;;;;;;;;;;;;;;;-142.75;79.84;74838.41;5052771;28;19913;-68
2022/09/06 12:15:23;;;;;;;;;;;;;;;-142.75;77.83;74808.91;5051389;28;19913;-67
2022/09/06 12:17:48;;;;;;;;;;;;;;;-142.75;78.14;74759.72;5053425;28;19924;-67
2022/09/06 12:20:33;;;;;;;;;;;;;;;-142.75;78.26;74793.16;5053692;28;19913;-68
2022/09/06 12:22:58;;;;;;;;;;;;;;;-142.75;78.50;74803.00;5053016;28;20362;-68
2022/09/06 12:25:33;;;;;;;;;;;;;;;-142.75;75.97;74791.19;5053904;28;19917;-67